createdAt,value
2018-10-07T00:00:12.246Z,1003.58
2018-10-07T00:01:12.235Z,1003.61
2018-10-07T00:02:12.219Z,1003.70
2018-10-07T00:03:12.204Z,1003.70
2018-10-07T00:04:12.190Z,1003.74
2018-10-07T00:05:12.183Z,1003.75
2018-10-07T00:06:12.166Z,1003.77
2018-10-07T00:07:12.155Z,1003.80
2018-10-07T00:08:12.135Z,1003.79
2018-10-07T00:09:12.137Z,1003.79
2018-10-07T00:10:12.115Z,1003.75
2018-10-07T00:11:12.105Z,1003.74
2018-10-07T00:12:12.095Z,1003.79
2018-10-07T00:13:12.074Z,1003.82
2018-10-07T00:14:12.055Z,1003.88
2018-10-07T00:15:12.040Z,1003.92
2018-10-07T00:16:12.029Z,1004.01
2018-10-07T00:17:12.014Z,1004.01
2018-10-07T00:18:11.999Z,1004.08
2018-10-07T00:19:11.984Z,1004.10
2018-10-07T00:20:11.972Z,1004.15
2018-10-07T00:21:11.956Z,1004.19
2018-10-07T00:22:11.944Z,1004.27
2018-10-07T00:23:11.930Z,1004.28
2018-10-07T00:24:11.918Z,1004.29
2018-10-07T00:25:11.903Z,1004.34
2018-10-07T00:26:11.892Z,1004.40
2018-10-07T00:27:11.909Z,1004.40
2018-10-07T00:28:11.863Z,1004.39
2018-10-07T00:29:11.847Z,1004.40
2018-10-07T00:30:11.837Z,1004.37
2018-10-07T00:31:11.818Z,1004.39
2018-10-07T00:32:11.808Z,1004.40
2018-10-07T00:33:11.791Z,1004.39
2018-10-07T00:34:11.778Z,1004.40
2018-10-07T00:35:11.765Z,1004.39
2018-10-07T00:36:11.752Z,1004.45
2018-10-07T00:37:11.734Z,1004.43
2018-10-07T00:38:11.721Z,1004.39
2018-10-07T00:39:11.708Z,1004.44
2018-10-07T00:40:11.694Z,1004.45
2018-10-07T00:41:11.682Z,1004.48
2018-10-07T00:42:11.684Z,1004.50
2018-10-07T00:43:11.652Z,1004.52
2018-10-07T00:44:11.637Z,1004.56
2018-10-07T00:45:11.655Z,1004.61
2018-10-07T00:46:11.615Z,1004.60
2018-10-07T00:47:11.594Z,1004.62
2018-10-07T00:48:11.581Z,1004.59
2018-10-07T00:49:11.565Z,1004.66
2018-10-07T00:50:11.553Z,1004.63
2018-10-07T00:51:11.539Z,1004.67
2018-10-07T00:52:11.529Z,1004.70
2018-10-07T00:53:11.510Z,1004.73
2018-10-07T00:54:11.496Z,1004.77
2018-10-07T00:55:11.485Z,1004.85
2018-10-07T00:56:11.475Z,1004.85
2018-10-07T00:57:11.454Z,1004.89
2018-10-07T00:58:11.442Z,1004.95
2018-10-07T00:59:11.426Z,1004.95
2018-10-07T01:00:11.414Z,1004.96
2018-10-07T01:01:11.401Z,1004.96
2018-10-07T01:02:11.385Z,1005.01
2018-10-07T01:03:11.372Z,1004.98
2018-10-07T01:04:11.357Z,1005.01
2018-10-07T01:05:11.343Z,1005.01
2018-10-07T01:06:11.326Z,1005.06
2018-10-07T01:07:11.320Z,1005.07
2018-10-07T01:08:11.298Z,1005.10
2018-10-07T01:09:11.285Z,1005.10
2018-10-07T01:11:11.255Z,1005.08
2018-10-07T01:12:11.244Z,1005.15
2018-10-07T01:13:11.234Z,1005.14
2018-10-07T01:14:11.216Z,1005.19
2018-10-07T01:15:11.199Z,1005.19
2018-10-07T01:16:11.183Z,1005.18
2018-10-07T01:17:11.173Z,1005.19
2018-10-07T01:18:11.167Z,1005.18
2018-10-07T01:19:11.145Z,1005.18
2018-10-07T01:20:11.128Z,1005.21
2018-10-07T01:21:11.116Z,1005.23
2018-10-07T01:22:11.111Z,1005.28
2018-10-07T01:23:11.088Z,1005.31
2018-10-07T01:24:11.070Z,1005.37
2018-10-07T01:25:11.052Z,1005.38
2018-10-07T01:26:11.049Z,1005.39
2018-10-07T01:27:11.027Z,1005.45
2018-10-07T01:28:11.009Z,1005.44
2018-10-07T01:29:11.002Z,1005.44
2018-10-07T01:30:10.985Z,1005.41
2018-10-07T01:31:10.971Z,1005.39
2018-10-07T01:32:10.953Z,1005.41
2018-10-07T01:33:10.939Z,1005.43
2018-10-07T01:34:11.141Z,1005.43
2018-10-07T01:35:10.914Z,1005.44
2018-10-07T01:36:10.900Z,1005.46
2018-10-07T01:37:10.883Z,1005.48
2018-10-07T01:38:10.869Z,1005.47
2018-10-07T01:39:10.857Z,1005.46
2018-10-07T01:40:10.842Z,1005.41
2018-10-07T01:41:10.829Z,1005.48
2018-10-07T01:42:10.815Z,1005.49
2018-10-07T01:43:10.802Z,1005.46
2018-10-07T01:44:10.819Z,1005.48
2018-10-07T01:45:10.771Z,1005.54
2018-10-07T01:46:10.764Z,1005.56
2018-10-07T01:47:10.744Z,1005.58
2018-10-07T01:48:10.753Z,1005.56
2018-10-07T01:49:10.716Z,1005.56
2018-10-07T01:50:10.702Z,1005.62
2018-10-07T01:51:10.939Z,1005.60
2018-10-07T01:52:10.680Z,1005.60
2018-10-07T01:53:10.659Z,1005.62
2018-10-07T01:54:10.645Z,1005.58
2018-10-07T01:55:10.631Z,1005.60
2018-10-07T01:56:10.620Z,1005.63
2018-10-07T01:57:10.601Z,1005.65
2018-10-07T01:58:10.593Z,1005.69
2018-10-07T01:59:10.583Z,1005.72
2018-10-07T02:00:10.875Z,1005.76
2018-10-07T02:01:10.544Z,1005.77
2018-10-07T02:02:10.532Z,1005.80
2018-10-07T02:03:10.519Z,1005.79
2018-10-07T02:04:10.502Z,1005.82
2018-10-07T02:05:10.626Z,1005.83
2018-10-07T02:06:10.475Z,1005.89
2018-10-07T02:07:10.462Z,1005.91
2018-10-07T02:08:10.446Z,1005.91
2018-10-07T02:09:10.430Z,1005.97
2018-10-07T02:10:10.416Z,1006.01
2018-10-07T02:11:10.401Z,1005.99
2018-10-07T02:12:10.388Z,1005.98
2018-10-07T02:13:10.375Z,1006.06
2018-10-07T02:14:10.363Z,1006.09
2018-10-07T02:15:10.348Z,1006.14
2018-10-07T02:16:10.331Z,1006.18
2018-10-07T02:17:10.331Z,1006.22
2018-10-07T02:18:10.309Z,1006.24
2018-10-07T02:19:10.287Z,1006.26
2018-10-07T02:20:10.273Z,1006.29
2018-10-07T02:21:10.260Z,1006.34
2018-10-07T02:22:10.246Z,1006.30
2018-10-07T02:23:10.234Z,1006.29
2018-10-07T02:24:10.237Z,1006.35
2018-10-07T02:25:10.204Z,1006.39
2018-10-07T02:26:10.187Z,1006.42
2018-10-07T02:27:10.176Z,1006.47
2018-10-07T02:28:10.160Z,1006.47
2018-10-07T02:29:10.145Z,1006.51
2018-10-07T02:30:10.132Z,1006.52
2018-10-07T02:31:10.117Z,1006.48
2018-10-07T02:32:10.100Z,1006.48
2018-10-07T02:33:10.089Z,1006.50
2018-10-07T02:34:10.074Z,1006.49
2018-10-07T02:35:10.061Z,1006.51
2018-10-07T02:36:10.043Z,1006.50
2018-10-07T02:37:10.028Z,1006.55
2018-10-07T02:38:10.021Z,1006.52
2018-10-07T02:39:10.003Z,1006.56
2018-10-07T02:40:09.985Z,1006.65
2018-10-07T02:41:09.971Z,1006.68
2018-10-07T02:42:09.957Z,1006.76
2018-10-07T02:43:09.944Z,1006.74
2018-10-07T02:44:09.926Z,1006.68
2018-10-07T02:45:09.914Z,1006.64
2018-10-07T02:46:09.895Z,1006.61
2018-10-07T02:47:09.883Z,1006.61
2018-10-07T02:48:09.867Z,1006.61
2018-10-07T02:49:09.850Z,1006.61
2018-10-07T02:50:09.840Z,1006.60
2018-10-07T02:51:09.826Z,1006.67
2018-10-07T02:52:09.807Z,1006.66
2018-10-07T02:53:09.858Z,1006.76
2018-10-07T02:54:09.786Z,1006.86
2018-10-07T02:55:09.763Z,1006.90
2018-10-07T02:56:09.754Z,1007.00
2018-10-07T02:57:09.729Z,1007.06
2018-10-07T02:58:09.718Z,1007.09
2018-10-07T02:59:09.702Z,1007.15
2018-10-07T03:00:09.687Z,1007.16
2018-10-07T03:01:09.680Z,1007.14
2018-10-07T03:02:09.657Z,1007.12
2018-10-07T03:03:09.645Z,1007.17
2018-10-07T03:04:09.628Z,1007.19
2018-10-07T03:05:09.614Z,1007.20
2018-10-07T03:06:09.596Z,1007.30
2018-10-07T03:07:09.579Z,1007.26
2018-10-07T03:08:09.566Z,1007.35
2018-10-07T03:09:09.550Z,1007.32
2018-10-07T03:10:09.534Z,1007.30
2018-10-07T03:11:09.518Z,1007.32
2018-10-07T03:12:09.507Z,1007.32
2018-10-07T03:13:09.489Z,1007.34
2018-10-07T03:14:09.478Z,1007.38
2018-10-07T03:15:09.458Z,1007.38
2018-10-07T03:16:09.442Z,1007.43
2018-10-07T03:17:09.429Z,1007.45
2018-10-07T03:18:09.412Z,1007.47
2018-10-07T03:19:09.396Z,1007.48
2018-10-07T03:20:09.380Z,1007.53
2018-10-07T03:21:09.364Z,1007.59
2018-10-07T03:22:09.350Z,1007.55
2018-10-07T03:23:09.333Z,1007.57
2018-10-07T03:24:09.320Z,1007.59
2018-10-07T03:25:09.303Z,1007.61
2018-10-07T03:26:09.285Z,1007.58
2018-10-07T03:27:09.271Z,1007.68
2018-10-07T03:28:09.253Z,1007.73
2018-10-07T03:29:09.241Z,1007.76
2018-10-07T03:30:09.226Z,1007.79
2018-10-07T03:31:09.208Z,1007.74
2018-10-07T03:32:09.191Z,1007.84
2018-10-07T03:33:09.185Z,1007.87
2018-10-07T03:34:09.163Z,1007.90
2018-10-07T03:35:09.146Z,1007.87
2018-10-07T03:36:09.128Z,1007.89
2018-10-07T03:37:09.112Z,1007.86
2018-10-07T03:38:09.098Z,1007.84
2018-10-07T03:39:09.083Z,1007.74
2018-10-07T03:40:09.066Z,1007.86
2018-10-07T03:41:09.051Z,1007.82
2018-10-07T03:42:09.037Z,1007.89
2018-10-07T03:43:09.022Z,1007.91
2018-10-07T03:44:09.006Z,1007.94
2018-10-07T03:45:08.989Z,1008.01
2018-10-07T03:46:08.975Z,1008.03
2018-10-07T03:47:08.956Z,1008.07
2018-10-07T03:48:08.950Z,1008.12
2018-10-07T03:49:08.924Z,1008.10
2018-10-07T03:50:08.912Z,1008.14
2018-10-07T03:51:08.895Z,1008.15
2018-10-07T03:52:08.876Z,1008.11
2018-10-07T03:53:08.864Z,1008.09
2018-10-07T03:54:08.841Z,1008.12
2018-10-07T03:55:08.831Z,1008.14
2018-10-07T03:56:08.817Z,1008.20
2018-10-07T03:57:08.796Z,1008.21
2018-10-07T03:58:08.778Z,1008.23
2018-10-07T03:59:08.768Z,1008.25
2018-10-07T04:00:08.748Z,1008.26
2018-10-07T04:01:08.730Z,1008.30
2018-10-07T04:02:08.714Z,1008.26
2018-10-07T04:03:08.696Z,1008.28
2018-10-07T04:04:08.683Z,1008.30
2018-10-07T04:05:08.669Z,1008.31
2018-10-07T04:06:08.647Z,1008.29
2018-10-07T04:07:08.639Z,1008.30
2018-10-07T04:08:08.615Z,1008.25
2018-10-07T04:09:08.603Z,1008.23
2018-10-07T04:10:08.582Z,1008.25
2018-10-07T04:11:08.566Z,1008.29
2018-10-07T04:12:08.550Z,1008.33
2018-10-07T04:13:08.534Z,1008.32
2018-10-07T04:14:08.515Z,1008.36
2018-10-07T04:15:08.499Z,1008.42
2018-10-07T04:16:08.487Z,1008.44
2018-10-07T04:17:08.470Z,1008.45
2018-10-07T04:18:08.453Z,1008.40
2018-10-07T04:19:08.439Z,1008.45
2018-10-07T04:20:08.424Z,1008.43
2018-10-07T04:21:08.403Z,1008.42
2018-10-07T04:22:08.389Z,1008.47
2018-10-07T04:23:08.375Z,1008.46
2018-10-07T04:24:08.355Z,1008.48
2018-10-07T04:25:08.410Z,1008.48
2018-10-07T04:26:08.327Z,1008.50
2018-10-07T04:27:08.311Z,1008.52
2018-10-07T04:28:08.295Z,1008.51
2018-10-07T04:29:08.278Z,1008.47
2018-10-07T04:30:08.259Z,1008.46
2018-10-07T04:31:08.241Z,1008.46
2018-10-07T04:32:08.226Z,1008.36
2018-10-07T04:33:08.213Z,1008.48
2018-10-07T04:34:08.191Z,1008.43
2018-10-07T04:35:08.177Z,1008.43
2018-10-07T04:36:08.162Z,1008.39
2018-10-07T04:37:08.148Z,1008.44
2018-10-07T04:38:08.130Z,1008.52
2018-10-07T04:39:08.121Z,1008.45
2018-10-07T04:40:08.103Z,1008.51
2018-10-07T04:41:08.086Z,1008.53
2018-10-07T04:42:08.068Z,1008.54
2018-10-07T04:43:08.054Z,1008.54
2018-10-07T04:44:08.027Z,1008.55
2018-10-07T04:45:08.025Z,1008.55
2018-10-07T04:46:08.028Z,1008.58
2018-10-07T04:47:07.988Z,1008.56
2018-10-07T04:48:07.969Z,1008.59
2018-10-07T04:49:07.950Z,1008.63
2018-10-07T04:50:07.938Z,1008.63
2018-10-07T04:51:07.924Z,1008.65
2018-10-07T04:52:07.903Z,1008.65
2018-10-07T04:53:07.881Z,1008.68
2018-10-07T04:54:07.876Z,1008.68
2018-10-07T04:55:07.848Z,1008.65
2018-10-07T04:56:07.831Z,1008.70
2018-10-07T04:57:07.822Z,1008.74
2018-10-07T04:58:07.800Z,1008.74
2018-10-07T04:59:07.787Z,1008.75
2018-10-07T05:00:07.825Z,1008.72
2018-10-07T05:01:07.748Z,1008.73
2018-10-07T05:02:07.734Z,1008.74
2018-10-07T05:03:07.716Z,1008.76
2018-10-07T05:04:07.701Z,1008.79
2018-10-07T05:05:07.687Z,1008.83
2018-10-07T05:06:07.666Z,1008.85
2018-10-07T05:07:07.660Z,1008.89
2018-10-07T05:08:07.633Z,1008.90
2018-10-07T05:09:07.618Z,1008.89
2018-10-07T05:10:07.598Z,1008.96
2018-10-07T05:11:07.584Z,1008.95
2018-10-07T05:12:07.686Z,1008.98
2018-10-07T05:13:07.550Z,1008.97
2018-10-07T05:14:07.537Z,1009.00
2018-10-07T05:15:07.517Z,1009.06
2018-10-07T05:16:07.502Z,1009.06
2018-10-07T05:17:07.484Z,1009.13
2018-10-07T05:18:07.468Z,1009.11
2018-10-07T05:19:07.451Z,1009.08
2018-10-07T05:20:07.439Z,1009.19
2018-10-07T05:21:07.433Z,1009.17
2018-10-07T05:22:07.404Z,1009.18
2018-10-07T05:23:07.389Z,1009.22
2018-10-07T05:24:07.380Z,1009.26
2018-10-07T05:25:07.365Z,1009.31
2018-10-07T05:26:07.349Z,1009.34
2018-10-07T05:27:07.318Z,1009.41
2018-10-07T05:28:07.307Z,1009.38
2018-10-07T05:29:07.287Z,1009.43
2018-10-07T05:30:07.271Z,1009.46
2018-10-07T05:31:07.256Z,1009.53
2018-10-07T05:32:07.235Z,1009.53
2018-10-07T05:33:07.233Z,1009.55
2018-10-07T05:34:07.204Z,1009.57
2018-10-07T05:35:07.186Z,1009.62
2018-10-07T05:36:07.179Z,1009.60
2018-10-07T05:37:07.154Z,1009.61
2018-10-07T05:38:07.136Z,1009.66
2018-10-07T05:39:07.121Z,1009.66
2018-10-07T05:40:07.104Z,1009.70
2018-10-07T05:41:07.091Z,1009.70
2018-10-07T05:42:07.071Z,1009.74
2018-10-07T05:43:07.060Z,1009.79
2018-10-07T05:44:07.043Z,1009.76
2018-10-07T05:45:07.024Z,1009.84
2018-10-07T05:46:07.003Z,1009.82
2018-10-07T05:47:06.993Z,1009.85
2018-10-07T05:48:06.972Z,1009.87
2018-10-07T05:49:06.955Z,1009.84
2018-10-07T05:50:06.941Z,1009.86
2018-10-07T05:51:06.933Z,1009.87
2018-10-07T05:52:06.904Z,1009.86
2018-10-07T05:53:06.891Z,1009.86
2018-10-07T05:54:06.872Z,1009.90
2018-10-07T05:55:06.856Z,1009.92
2018-10-07T05:56:06.838Z,1009.97
2018-10-07T05:57:06.827Z,1009.98
2018-10-07T05:58:06.846Z,1010.04
2018-10-07T05:59:06.797Z,1010.05
2018-10-07T06:00:06.776Z,1010.12
2018-10-07T06:01:06.760Z,1010.19
2018-10-07T06:02:06.768Z,1010.16
2018-10-07T06:03:06.731Z,1010.20
2018-10-07T06:04:06.718Z,1010.23
2018-10-07T06:05:06.732Z,1010.23
2018-10-07T06:06:06.677Z,1010.31
2018-10-07T06:07:06.659Z,1010.27
2018-10-07T06:08:06.642Z,1010.26
2018-10-07T06:09:06.629Z,1010.29
2018-10-07T06:10:06.612Z,1010.34
2018-10-07T06:11:06.593Z,1010.37
2018-10-07T06:12:06.583Z,1010.33
2018-10-07T06:13:06.564Z,1010.41
2018-10-07T06:14:06.549Z,1010.43
2018-10-07T06:15:06.527Z,1010.48
2018-10-07T06:16:06.509Z,1010.57
2018-10-07T06:17:06.502Z,1010.56
2018-10-07T06:18:06.477Z,1010.59
2018-10-07T06:19:06.461Z,1010.65
2018-10-07T06:20:06.443Z,1010.70
2018-10-07T06:21:06.426Z,1010.71
2018-10-07T06:22:06.426Z,1010.78
2018-10-07T06:23:06.397Z,1010.80
2018-10-07T06:24:06.376Z,1010.84
2018-10-07T06:25:06.370Z,1010.83
2018-10-07T06:26:06.343Z,1010.88
2018-10-07T06:27:06.328Z,1010.86
2018-10-07T06:28:06.314Z,1010.91
2018-10-07T06:29:06.298Z,1010.94
2018-10-07T06:30:06.284Z,1010.99
2018-10-07T06:31:06.269Z,1011.00
2018-10-07T06:32:06.247Z,1011.04
2018-10-07T06:33:06.237Z,1011.06
2018-10-07T06:34:06.220Z,1011.09
2018-10-07T06:35:06.203Z,1011.10
2018-10-07T06:36:06.189Z,1011.15
2018-10-07T06:37:06.173Z,1011.20
2018-10-07T06:38:06.161Z,1011.15
2018-10-07T06:39:06.147Z,1011.15
2018-10-07T06:40:06.129Z,1011.11
2018-10-07T06:41:06.124Z,1011.09
2018-10-07T06:42:06.101Z,1011.11
2018-10-07T06:43:06.101Z,1011.14
2018-10-07T06:44:06.076Z,1011.12
2018-10-07T06:45:06.062Z,1011.21
2018-10-07T06:46:06.046Z,1011.25
2018-10-07T06:47:06.039Z,1011.23
2018-10-07T06:48:06.019Z,1011.25
2018-10-07T06:49:06.006Z,1011.30
2018-10-07T06:50:05.985Z,1011.34
2018-10-07T06:51:05.978Z,1011.33
2018-10-07T06:52:05.954Z,1011.35
2018-10-07T06:53:05.947Z,1011.39
2018-10-07T06:54:05.925Z,1011.39
2018-10-07T06:55:05.909Z,1011.42
2018-10-07T06:56:05.895Z,1011.43
2018-10-07T06:57:05.877Z,1011.45
2018-10-07T06:58:05.869Z,1011.45
2018-10-07T06:59:05.847Z,1011.50
2018-10-07T07:00:05.832Z,1011.55
2018-10-07T07:01:05.816Z,1011.55
2018-10-07T07:02:05.801Z,1011.56
2018-10-07T07:03:05.784Z,1011.57
2018-10-07T07:04:05.776Z,1011.61
2018-10-07T07:05:05.752Z,1011.63
2018-10-07T07:06:05.737Z,1011.65
2018-10-07T07:07:05.722Z,1011.69
2018-10-07T07:08:05.705Z,1011.67
2018-10-07T07:09:05.691Z,1011.67
2018-10-07T07:10:05.674Z,1011.71
2018-10-07T07:11:05.666Z,1011.72
2018-10-07T07:12:05.645Z,1011.75
2018-10-07T07:13:05.719Z,1011.75
2018-10-07T07:14:05.609Z,1011.75
2018-10-07T07:15:05.598Z,1011.76
2018-10-07T07:16:05.580Z,1011.77
2018-10-07T07:17:05.570Z,1011.77
2018-10-07T07:18:05.547Z,1011.80
2018-10-07T07:19:05.532Z,1011.80
2018-10-07T07:20:05.537Z,1011.79
2018-10-07T07:21:05.503Z,1011.82
2018-10-07T07:22:05.481Z,1011.81
2018-10-07T07:23:05.467Z,1011.81
2018-10-07T07:24:05.452Z,1011.81
2018-10-07T07:25:05.435Z,1011.84
2018-10-07T07:26:05.420Z,1011.82
2018-10-07T07:27:05.455Z,1011.88
2018-10-07T07:28:05.476Z,1011.89
2018-10-07T07:29:05.372Z,1011.90
2018-10-07T07:30:05.436Z,1011.99
2018-10-07T07:31:05.341Z,1011.96
2018-10-07T07:32:05.338Z,1012.19
2018-10-07T07:33:05.309Z,1012.05
2018-10-07T07:34:05.294Z,1012.22
2018-10-07T07:35:05.280Z,1012.24
2018-10-07T07:36:05.264Z,1012.07
2018-10-07T07:37:05.259Z,1011.99
2018-10-07T07:38:05.238Z,1012.25
2018-10-07T07:39:05.225Z,1012.06
2018-10-07T07:40:05.209Z,1012.09
2018-10-07T07:41:05.194Z,1012.07
2018-10-07T07:42:05.178Z,1012.53
2018-10-07T07:43:05.164Z,1012.50
2018-10-07T07:44:05.157Z,1012.41
2018-10-07T07:45:05.144Z,1012.67
2018-10-07T07:46:05.129Z,1012.54
2018-10-07T07:47:05.115Z,1012.77
2018-10-07T07:48:05.122Z,1012.47
2018-10-07T07:49:05.210Z,1012.87
2018-10-07T07:50:05.098Z,1012.78
2018-10-07T07:51:05.075Z,1012.85
2018-10-07T07:52:05.065Z,1012.86
2018-10-07T07:53:05.057Z,1012.88
2018-10-07T07:54:05.050Z,1012.91
2018-10-07T07:55:05.040Z,1012.90
2018-10-07T07:56:05.037Z,1012.97
2018-10-07T07:57:05.030Z,1013.00
2018-10-07T07:58:05.021Z,1013.11
2018-10-07T07:59:05.015Z,1013.10
2018-10-07T08:00:05.011Z,1013.17
2018-10-07T08:01:05.016Z,1013.21
2018-10-07T08:02:05.003Z,1013.19
2018-10-07T08:03:04.996Z,1013.20
2018-10-07T08:04:04.990Z,1013.25
2018-10-07T08:05:04.988Z,1013.22
2018-10-07T08:06:04.984Z,1013.20
2018-10-07T08:07:05.094Z,1013.22
2018-10-07T08:08:04.982Z,1013.30
2018-10-07T08:09:04.985Z,1013.34
2018-10-07T08:10:04.972Z,1013.39
2018-10-07T08:11:04.972Z,1013.45
2018-10-07T08:12:04.967Z,1013.52
2018-10-07T08:13:04.971Z,1013.59
2018-10-07T08:14:04.965Z,1013.54
2018-10-07T08:15:04.966Z,1013.59
2018-10-07T08:16:04.961Z,1013.53
2018-10-07T08:17:04.965Z,1013.58
2018-10-07T08:18:04.962Z,1013.64
2018-10-07T08:19:04.961Z,1013.72
2018-10-07T08:20:04.965Z,1013.73
2018-10-07T08:21:04.959Z,1013.72
2018-10-07T08:22:04.962Z,1013.74
2018-10-07T08:23:04.957Z,1013.81
2018-10-07T08:24:04.956Z,1013.75
2018-10-07T08:25:04.967Z,1013.77
2018-10-07T08:26:04.961Z,1013.83
2018-10-07T08:27:04.961Z,1013.82
2018-10-07T08:28:04.963Z,1013.85
2018-10-07T08:29:04.961Z,1013.86
2018-10-07T08:30:04.964Z,1013.87
2018-10-07T08:31:04.963Z,1013.91
2018-10-07T08:32:04.963Z,1013.94
2018-10-07T08:33:04.968Z,1013.92
2018-10-07T08:34:04.968Z,1013.99
2018-10-07T08:35:05.019Z,1013.96
2018-10-07T08:36:04.967Z,1014.00
2018-10-07T08:37:04.966Z,1014.02
2018-10-07T08:38:04.970Z,1014.09
2018-10-07T08:39:04.970Z,1014.23
2018-10-07T08:40:04.974Z,1014.29
2018-10-07T08:41:04.972Z,1014.21
2018-10-07T08:42:04.974Z,1014.24
2018-10-07T08:43:04.977Z,1014.23
2018-10-07T08:44:04.977Z,1014.15
2018-10-07T08:45:04.978Z,1014.11
2018-10-07T08:46:04.986Z,1014.08
2018-10-07T08:47:04.982Z,1014.12
2018-10-07T08:48:04.990Z,1014.14
2018-10-07T08:49:04.982Z,1014.14
2018-10-07T08:50:04.985Z,1014.18
2018-10-07T08:51:04.987Z,1014.15
2018-10-07T08:52:04.987Z,1014.23
2018-10-07T08:53:05.017Z,1014.18
2018-10-07T08:54:04.996Z,1014.16
2018-10-07T08:55:04.997Z,1014.18
2018-10-07T08:56:05.068Z,1014.21
2018-10-07T08:57:04.996Z,1014.17
2018-10-07T08:58:04.997Z,1014.17
2018-10-07T08:59:05.000Z,1014.20
2018-10-07T09:00:04.999Z,1014.15
2018-10-07T09:01:05.002Z,1014.15
2018-10-07T09:02:05.034Z,1014.16
2018-10-07T09:03:05.004Z,1014.22
2018-10-07T09:04:05.015Z,1014.22
2018-10-07T09:05:05.007Z,1014.29
2018-10-07T09:06:05.008Z,1014.28
2018-10-07T09:07:05.008Z,1014.36
2018-10-07T09:08:05.010Z,1014.36
2018-10-07T09:09:05.027Z,1014.38
2018-10-07T09:10:05.031Z,1014.38
2018-10-07T09:11:05.015Z,1014.36
2018-10-07T09:12:05.018Z,1014.38
2018-10-07T09:13:05.027Z,1014.37
2018-10-07T09:14:05.018Z,1014.31
2018-10-07T09:15:05.013Z,1014.37
2018-10-07T09:16:05.017Z,1014.37
2018-10-07T09:17:05.015Z,1014.45
2018-10-07T09:18:05.016Z,1014.37
2018-10-07T09:19:05.018Z,1014.28
2018-10-07T09:20:05.014Z,1014.27
2018-10-07T09:21:05.091Z,1014.25
2018-10-07T09:22:05.016Z,1014.26
2018-10-07T09:23:05.016Z,1014.30
2018-10-07T09:24:05.010Z,1014.27
2018-10-07T09:25:05.012Z,1014.22
2018-10-07T09:26:05.009Z,1014.26
2018-10-07T09:27:05.139Z,1014.30
2018-10-07T09:28:05.006Z,1014.37
2018-10-07T09:29:05.007Z,1014.31
2018-10-07T09:30:05.007Z,1014.42
2018-10-07T09:31:05.007Z,1014.45
2018-10-07T09:32:05.005Z,1014.48
2018-10-07T09:33:05.010Z,1014.44
2018-10-07T09:34:05.000Z,1014.47
2018-10-07T09:35:05.004Z,1014.53
2018-10-07T09:36:04.997Z,1014.54
2018-10-07T09:37:05.012Z,1014.58
2018-10-07T09:38:04.999Z,1014.62
2018-10-07T09:39:04.999Z,1014.67
2018-10-07T09:40:04.993Z,1014.75
2018-10-07T09:41:04.988Z,1014.79
2018-10-07T09:42:04.986Z,1014.84
2018-10-07T09:43:04.987Z,1014.52
2018-10-07T09:44:04.987Z,1014.13
2018-10-07T09:45:04.982Z,1013.94
2018-10-07T09:46:04.984Z,1014.02
2018-10-07T09:47:05.009Z,1014.01
2018-10-07T09:48:04.975Z,1014.02
2018-10-07T09:49:04.972Z,1014.03
2018-10-07T09:50:04.967Z,1014.00
2018-10-07T09:51:04.964Z,1014.02
2018-10-07T09:52:04.962Z,1014.02
2018-10-07T09:53:04.956Z,1014.01
2018-10-07T09:54:04.956Z,1014.03
2018-10-07T09:55:04.951Z,1014.05
2018-10-07T09:56:04.949Z,1014.04
2018-10-07T09:57:04.947Z,1014.10
2018-10-07T09:58:05.021Z,1014.09
2018-10-07T09:59:04.941Z,1014.11
2018-10-07T10:00:04.929Z,1014.11
2018-10-07T10:01:04.953Z,1014.14
2018-10-07T10:02:04.921Z,1014.13
2018-10-07T10:03:04.922Z,1014.12
2018-10-07T10:04:04.933Z,1014.10
2018-10-07T10:05:04.909Z,1014.09
2018-10-07T10:06:04.905Z,1014.12
2018-10-07T10:07:04.913Z,1014.15
2018-10-07T10:08:04.896Z,1014.14
2018-10-07T10:09:04.895Z,1014.19
2018-10-07T10:10:04.888Z,1014.19
2018-10-07T10:11:04.923Z,1014.14
2018-10-07T10:12:04.877Z,1014.14
2018-10-07T10:13:04.874Z,1014.14
2018-10-07T10:14:04.940Z,1014.11
2018-10-07T10:15:04.865Z,1014.14
2018-10-07T10:16:04.867Z,1014.14
2018-10-07T10:17:04.855Z,1014.15
2018-10-07T10:18:04.851Z,1014.18
2018-10-07T10:19:04.862Z,1014.16
2018-10-07T10:20:04.838Z,1014.13
2018-10-07T10:21:04.835Z,1014.10
2018-10-07T10:22:04.832Z,1014.16
2018-10-07T10:23:04.829Z,1014.16
2018-10-07T10:24:04.820Z,1014.15
2018-10-07T10:25:04.818Z,1014.17
2018-10-07T10:26:04.827Z,1014.09
2018-10-07T10:27:04.804Z,1014.24
2018-10-07T10:28:04.804Z,1014.14
2018-10-07T10:29:04.793Z,1014.24
2018-10-07T10:30:04.791Z,1014.21
2018-10-07T10:31:04.781Z,1014.22
2018-10-07T10:32:04.778Z,1014.06
2018-10-07T10:33:04.770Z,1014.14
2018-10-07T10:34:04.765Z,1014.17
2018-10-07T10:35:04.768Z,1014.22
2018-10-07T10:36:04.752Z,1014.23
2018-10-07T10:37:04.747Z,1014.22
2018-10-07T10:38:04.749Z,1014.15
2018-10-07T10:39:04.738Z,1014.22
2018-10-07T10:40:04.751Z,1014.26
2018-10-07T10:41:04.732Z,1014.28
2018-10-07T10:42:04.721Z,1014.27
2018-10-07T10:43:04.713Z,1014.31
2018-10-07T10:44:04.719Z,1014.33
2018-10-07T10:45:04.699Z,1014.39
2018-10-07T10:46:04.691Z,1014.40
2018-10-07T10:47:04.685Z,1014.38
2018-10-07T10:48:04.740Z,1014.39
2018-10-07T10:49:04.670Z,1014.37
2018-10-07T10:50:04.665Z,1014.45
2018-10-07T10:51:04.659Z,1014.41
2018-10-07T10:52:04.660Z,1014.43
2018-10-07T10:53:04.648Z,1014.36
2018-10-07T10:54:04.640Z,1014.44
2018-10-07T10:55:04.676Z,1014.41
2018-10-07T10:56:04.626Z,1014.41
2018-10-07T10:57:04.622Z,1014.43
2018-10-07T10:58:04.616Z,1014.40
2018-10-07T10:59:04.605Z,1014.36
2018-10-07T11:00:04.602Z,1014.38
2018-10-07T11:01:04.659Z,1014.39
2018-10-07T11:02:04.589Z,1014.37
2018-10-07T11:03:04.578Z,1014.37
2018-10-07T11:04:04.568Z,1014.38
2018-10-07T11:05:04.563Z,1014.41
2018-10-07T11:06:04.556Z,1014.36
2018-10-07T11:07:04.549Z,1014.37
2018-10-07T11:08:04.543Z,1014.35
2018-10-07T11:09:04.548Z,1014.39
2018-10-07T11:10:04.529Z,1014.43
2018-10-07T11:11:04.522Z,1014.43
2018-10-07T11:12:04.513Z,1014.39
2018-10-07T11:13:04.512Z,1014.38
2018-10-07T11:14:04.500Z,1014.39
2018-10-07T11:15:04.507Z,1014.38
2018-10-07T11:16:04.498Z,1014.42
2018-10-07T11:17:04.478Z,1014.39
2018-10-07T11:18:04.475Z,1014.33
2018-10-07T11:19:04.465Z,1014.40
2018-10-07T11:20:04.456Z,1014.41
2018-10-07T11:21:04.449Z,1014.36
2018-10-07T11:22:04.445Z,1014.31
2018-10-07T11:23:04.434Z,1014.34
2018-10-07T11:24:04.427Z,1014.32
2018-10-07T11:25:04.421Z,1014.30
2018-10-07T11:26:04.420Z,1014.25
2018-10-07T11:27:04.408Z,1014.25
2018-10-07T11:28:04.401Z,1014.23
2018-10-07T11:29:04.391Z,1014.24
2018-10-07T11:30:04.384Z,1014.25
2018-10-07T11:31:04.377Z,1014.12
2018-10-07T11:32:04.377Z,1014.18
2018-10-07T11:33:04.365Z,1014.18
2018-10-07T11:34:04.361Z,1014.13
2018-10-07T11:35:04.358Z,1014.14
2018-10-07T11:36:04.344Z,1014.17
2018-10-07T11:37:04.331Z,1014.14
2018-10-07T11:38:04.329Z,1014.16
2018-10-07T11:39:04.322Z,1014.16
2018-10-07T11:40:04.306Z,1014.18
2018-10-07T11:41:04.304Z,1014.15
2018-10-07T11:42:04.293Z,1014.12
2018-10-07T11:43:04.285Z,1014.11
2018-10-07T11:44:04.284Z,1014.11
2018-10-07T11:45:04.282Z,1014.08
2018-10-07T11:46:04.265Z,1014.09
2018-10-07T11:47:04.258Z,1014.10
2018-10-07T11:48:04.249Z,1014.08
2018-10-07T11:49:04.242Z,1014.08
2018-10-07T11:50:04.247Z,1014.06
2018-10-07T11:51:04.228Z,1014.07
2018-10-07T11:52:04.227Z,1014.05
2018-10-07T11:53:04.213Z,1014.07
2018-10-07T11:54:04.202Z,1014.04
2018-10-07T11:55:04.197Z,1014.00
2018-10-07T11:56:04.201Z,1013.98
2018-10-07T11:57:04.179Z,1013.99
2018-10-07T11:58:04.172Z,1013.97
2018-10-07T11:59:04.162Z,1013.98
2018-10-07T12:00:04.165Z,1014.02
2018-10-07T12:01:04.147Z,1013.97
2018-10-07T12:02:04.149Z,1013.97
2018-10-07T12:03:04.137Z,1014.02
2018-10-07T12:04:04.126Z,1014.06
2018-10-07T12:05:04.124Z,1013.99
2018-10-07T12:06:04.115Z,1013.99